Time;durP1;ratioP1;P1;durP2;ratioP2;P2;SDS_P1;SDS_P2;PMS_P1;PMS_P2;Temp;Humidity;BMP_temperature;BMP_pressure;BME280_temperature;BME280_humidity;BME280_pressure;Samples;Min_cycle;Max_cycle;Signal;HPM_P1;HPM_P2
2023/02/15 00:01:47;;;;;;;61.92;35.15;;;;;;;;;;4924648;29;20036;-94
2023/02/15 00:04:14;;;;;;;60.10;33.33;;;;;;;;;;4941247;29;20051;-93
2023/02/15 00:09:45;;;;;;;59.00;34.10;;;;;;;;;;4941485;29;20038;-94
2023/02/15 00:12:11;;;;;;;62.17;35.38;;;;;;;;;;4924597;29;20035;-93
2023/02/15 00:14:37;;;;;;;62.55;34.47;;;;;;;;;;4923794;29;20130;-93
2023/02/15 00:17:03;;;;;;;101.35;44.42;;;;;;;;;;4940903;29;20471;-93
2023/02/15 00:19:29;;;;;;;167.77;59.90;;;;;;;;;;4941221;29;20071;-94
2023/02/15 00:25:13;;;;;;;103.68;46.05;;;;;;;;;;4940904;29;20149;-93
2023/02/15 00:27:39;;;;;;;84.30;42.00;;;;;;;;;;4933642;29;20116;-93
2023/02/15 00:30:05;;;;;;;79.53;41.03;;;;;;;;;;4905410;29;20071;-93
2023/02/15 00:32:32;;;;;;;87.53;42.92;;;;;;;;;;4905067;29;20032;-93
2023/02/15 00:34:58;;;;;;;74.78;42.05;;;;;;;;;;4922133;29;20036;-93
2023/02/15 00:37:24;;;;;;;71.65;40.28;;;;;;;;;;4922011;29;20039;-93
2023/02/15 00:39:50;;;;;;;76.35;43.13;;;;;;;;;;4921645;29;20036;-94
2023/02/15 00:42:16;;;;;;;75.43;39.33;;;;;;;;;;4904707;29;20458;-94
2023/02/15 00:44:42;;;;;;;76.75;39.15;;;;;;;;;;4904937;29;20036;-94
2023/02/15 00:47:08;;;;;;;75.85;40.80;;;;;;;;;;4905042;29;20173;-94
2023/02/15 00:49:34;;;;;;;80.78;41.50;;;;;;;;;;4905038;29;20020;-95
2023/02/15 00:52:00;;;;;;;76.68;40.55;;;;;;;;;;4905197;29;20020;-93
2023/02/15 00:54:26;;;;;;;73.40;41.30;;;;;;;;;;4921571;29;20043;-94
2023/02/15 00:56:52;;;;;;;70.03;39.25;;;;;;;;;;4921493;29;20123;-94
2023/02/15 00:59:18;;;;;;;78.15;40.80;;;;;;;;;;4921103;29;20032;-93
2023/02/15 01:01:44;;;;;;;73.32;40.10;;;;;;;;;;4904612;29;20032;-94
2023/02/15 01:04:10;;;;;;;76.07;41.35;;;;;;;;;;4921448;29;20052;-95
2023/02/15 01:06:36;;;;;;;72.03;42.45;;;;;;;;;;4904542;29;20024;-92
2023/02/15 01:09:02;;;;;;;75.55;43.05;;;;;;;;;;4904853;29;20039;-94
2023/02/15 01:11:28;;;;;;;76.55;41.00;;;;;;;;;;4921361;29;20028;-94
2023/02/15 01:13:56;;;;;;;73.70;40.50;;;;;;;;;;4904767;29;20039;-95
2023/02/15 01:16:24;;;;;;;78.60;42.80;;;;;;;;;;4921536;29;20360;-93
2023/02/15 01:18:50;;;;;;;86.85;45.75;;;;;;;;;;4921217;29;20043;-96
2023/02/15 01:27:37;;;;;;;72.93;41.78;;;;;;;;;;4921287;29;20035;-95
2023/02/15 01:30:04;;;;;;;74.03;41.40;;;;;;;;;;4921474;29;20103;-94
2023/02/15 01:32:30;;;;;;;81.93;44.25;;;;;;;;;;4921041;29;20024;-95
2023/02/15 01:34:57;;;;;;;78.00;42.45;;;;;;;;;;4904478;29;20032;-93
2023/02/15 01:37:23;;;;;;;73.10;42.75;;;;;;;;;;4904451;29;20035;-92
2023/02/15 01:39:49;;;;;;;72.38;41.97;;;;;;;;;;4904170;29;20032;-91
2023/02/15 01:42:21;;;;;;;76.00;43.47;;;;;;;;;;4904272;29;20068;-93
2023/02/15 01:44:49;;;;;;;75.55;43.38;;;;;;;;;;4920998;29;20035;-93
2023/02/15 01:47:17;;;;;;;79.47;42.75;;;;;;;;;;4904488;29;20028;-95
2023/02/15 01:49:44;;;;;;;76.60;41.80;;;;;;;;;;4904390;29;20028;-93
2023/02/15 01:52:11;;;;;;;77.13;42.22;;;;;;;;;;4920622;29;20040;-95
2023/02/15 01:54:38;;;;;;;78.95;42.83;;;;;;;;;;4904254;29;20035;-92
2023/02/15 01:57:13;;;;;;;82.57;42.92;;;;;;;;;;4921092;29;20032;-93
2023/02/15 01:59:41;;;;;;;80.72;43.30;;;;;;;;;;4920776;29;20024;-93
2023/02/15 02:02:08;;;;;;;75.45;43.20;;;;;;;;;;4904237;29;20099;-93
2023/02/15 02:04:49;;;;;;;78.65;43.78;;;;;;;;;;4921008;29;20035;-93
2023/02/15 02:07:35;;;;;;;81.65;43.97;;;;;;;;;;4891469;29;20032;-94
2023/02/15 02:10:02;;;;;;;77.60;42.15;;;;;;;;;;4920794;29;20032;-93
2023/02/15 02:12:28;;;;;;;76.78;42.88;;;;;;;;;;4906895;29;20072;-94
2023/02/15 02:14:55;;;;;;;79.45;43.65;;;;;;;;;;4907731;29;20425;-93
2023/02/15 02:17:30;;;;;;;74.97;42.80;;;;;;;;;;4924273;29;20115;-93
2023/02/15 02:20:05;;;;;;;70.85;41.28;;;;;;;;;;4924349;29;20115;-93
2023/02/15 02:22:35;;;;;;;75.80;42.05;;;;;;;;;;4924248;29;20029;-92
2023/02/15 02:25:01;;;;;;;69.28;40.83;;;;;;;;;;4923908;29;20490;-92
2023/02/15 02:28:02;;;;;;;74.93;41.63;;;;;;;;;;4923934;29;20040;-94
2023/02/15 02:30:31;;;;;;;74.25;41.08;;;;;;;;;;4832295;29;20038;-92
2023/02/15 02:33:17;;;;;;;73.85;41.28;;;;;;;;;;4848088;29;20038;-92
2023/02/15 02:35:48;;;;;;;74.90;40.38;;;;;;;;;;4847729;29;20041;-93
2023/02/15 02:38:28;;;;;;;71.80;40.22;;;;;;;;;;4847487;29;20066;-92
2023/02/15 02:40:54;;;;;;;72.88;40.10;;;;;;;;;;4847577;29;20038;-94
2023/02/15 02:43:20;;;;;;;72.18;40.15;;;;;;;;;;4832176;29;20069;-93
2023/02/15 02:45:49;;;;;;;74.75;41.80;;;;;;;;;;4847534;29;20087;-94
2023/02/15 02:48:17;;;;;;;73.72;40.33;;;;;;;;;;4847742;29;20030;-95
2023/02/15 02:50:43;;;;;;;77.25;42.10;;;;;;;;;;4832106;29;20034;-96
2023/02/15 02:53:15;;;;;;;77.07;41.42;;;;;;;;;;4831963;29;20030;-96
2023/02/15 02:55:44;;;;;;;74.70;41.90;;;;;;;;;;4831894;29;20038;-93
2023/02/15 02:58:14;;;;;;;80.57;43.65;;;;;;;;;;4847443;29;20046;-91
2023/02/15 03:00:43;;;;;;;74.57;40.28;;;;;;;;;;4831957;29;20034;-92
2023/02/15 03:03:14;;;;;;;72.32;40.83;;;;;;;;;;4857931;29;20350;-93
2023/02/15 03:05:42;;;;;;;70.90;39.72;;;;;;;;;;4906391;29;20040;-93
2023/02/15 03:08:09;;;;;;;67.45;38.10;;;;;;;;;;4923632;29;20107;-93
2023/02/15 03:10:36;;;;;;;72.07;40.40;;;;;;;;;;4923135;29;20423;-92
2023/02/15 03:13:02;;;;;;;71.68;40.30;;;;;;;;;;4906780;29;20042;-92
2023/02/15 03:18:23;;;;;;;72.60;39.85;;;;;;;;;;4923379;29;20047;-95
2023/02/15 03:20:50;;;;;;;71.82;40.60;;;;;;;;;;4923043;29;20039;-93
2023/02/15 03:29:37;;;;;;;76.10;42.80;;;;;;;;;;4923193;29;20079;-94
2023/02/15 03:32:05;;;;;;;78.25;44.00;;;;;;;;;;4906133;29;20056;-94
2023/02/15 03:34:31;;;;;;;82.05;46.72;;;;;;;;;;4906396;29;20024;-94
2023/02/15 03:39:49;;;;;;;79.00;43.17;;;;;;;;;;4923026;29;20039;-94
2023/02/15 03:42:18;;;;;;;76.13;42.92;;;;;;;;;;4905869;29;20044;-93
2023/02/15 03:45:17;;;;;;;70.70;42.10;;;;;;;;;;4922862;29;20373;-93
2023/02/15 03:47:45;;;;;;;75.50;43.53;;;;;;;;;;4828378;29;20042;-95
2023/02/15 03:53:00;;;;;;;78.72;44.17;;;;;;;;;;4828469;29;20045;-96
2023/02/15 03:55:26;;;;;;;77.50;44.78;;;;;;;;;;4828288;29;20034;-93
2023/02/15 04:03:31;;;;;;;74.68;44.40;;;;;;;;;;4773726;30;20042;-93
2023/02/15 04:05:57;;;;;;;72.78;41.15;;;;;;;;;;4759036;30;20047;-93
2023/02/15 04:10:51;;;;;;;73.88;42.47;;;;;;;;;;4759043;30;20040;-94
2023/02/15 04:11:12;;;;;;;76.78;42.70;;;;;;;;;;4773601;30;20039;-92
2023/02/15 04:13:39;;;;;;;66.30;40.05;;;;;;;;;;4773689;30;20432;-93
2023/02/15 04:16:05;;;;;;;70.15;40.08;;;;;;;;;;4759085;30;20067;-93
2023/02/15 04:27:16;;;;;;;68.07;38.60;;;;;;;;;;4941416;29;20070;-94
2023/02/15 04:29:42;;;;;;;69.10;40.72;;;;;;;;;;4924105;29;20304;-94
2023/02/15 04:32:08;;;;;;;79.72;44.15;;;;;;;;;;4923982;29;20024;-94
2023/02/15 04:34:34;;;;;;;71.00;42.10;;;;;;;;;;4921405;29;20028;-95
2023/02/15 04:37:00;;;;;;;74.90;43.13;;;;;;;;;;4921838;29;20055;-94
2023/02/15 04:39:26;;;;;;;72.68;40.60;;;;;;;;;;4912105;29;20513;-94
2023/02/15 04:41:53;;;;;;;65.47;38.72;;;;;;;;;;4923801;29;20074;-92
2023/02/15 04:44:19;;;;;;;65.97;38.10;;;;;;;;;;4911704;29;20043;-94
2023/02/15 04:46:45;;;;;;;74.28;42.33;;;;;;;;;;4924254;29;20046;-94
2023/02/15 04:49:11;;;;;;;84.82;45.30;;;;;;;;;;4923964;29;20140;-93
2023/02/15 04:51:37;;;;;;;95.13;49.65;;;;;;;;;;4940571;29;20036;-94
2023/02/15 04:54:23;;;;;;;104.97;53.15;;;;;;;;;;4923771;29;20028;-95
2023/02/15 04:56:50;;;;;;;106.35;54.60;;;;;;;;;;4934450;29;20036;-93
2023/02/15 04:59:16;;;;;;;90.53;48.40;;;;;;;;;;4921508;29;20415;-94
2023/02/15 05:01:42;;;;;;;72.15;42.17;;;;;;;;;;4921305;29;20028;-93
2023/02/15 05:04:09;;;;;;;70.22;40.75;;;;;;;;;;4922990;29;20031;-95
2023/02/15 05:06:35;;;;;;;70.25;40.75;;;;;;;;;;4939501;29;20035;-93
2023/02/15 05:09:01;;;;;;;70.32;40.35;;;;;;;;;;4921310;29;20403;-95
2023/02/15 05:11:27;;;;;;;74.15;40.92;;;;;;;;;;4932616;29;20083;-96
2023/02/15 05:13:56;;;;;;;77.50;42.38;;;;;;;;;;4932199;29;20052;-96
2023/02/15 05:16:27;;;;;;;75.13;41.85;;;;;;;;;;4931746;29;20060;-95
2023/02/15 05:22:05;;;;;;;71.68;40.63;;;;;;;;;;4931999;29;20357;-95
2023/02/15 05:30:39;;;;;;;77.30;41.03;;;;;;;;;;4942379;29;20044;-95
2023/02/15 05:33:15;;;;;;;82.57;44.40;;;;;;;;;;4924944;29;20067;-95
2023/02/15 05:35:41;;;;;;;75.30;40.33;;;;;;;;;;4940673;29;20044;-96
2023/02/15 05:41:12;;;;;;;94.60;41.17;;;;;;;;;;4921594;29;20039;-93
2023/02/15 05:43:38;;;;;;;116.22;47.53;;;;;;;;;;4924102;29;20028;-93
2023/02/15 05:46:05;;;;;;;144.45;52.53;;;;;;;;;;4906864;29;20032;-94
2023/02/15 05:48:31;;;;;;;96.07;44.47;;;;;;;;;;4907872;29;20134;-93
2023/02/15 05:51:03;;;;;;;81.18;41.33;;;;;;;;;;4908122;29;20036;-94
2023/02/15 05:56:33;;;;;;;82.20;39.63;;;;;;;;;;4924796;29;20140;-93
2023/02/15 05:58:59;;;;;;;92.13;44.20;;;;;;;;;;4924716;29;20025;-93
2023/02/15 06:01:25;;;;;;;65.43;36.70;;;;;;;;;;4927829;29;20019;-93
2023/02/15 06:03:52;;;;;;;71.90;41.42;;;;;;;;;;4943895;29;20030;-93
2023/02/15 06:06:18;;;;;;;96.15;50.78;;;;;;;;;;4943341;29;20032;-93
2023/02/15 06:09:03;;;;;;;121.82;67.13;;;;;;;;;;4937953;29;20401;-93
2023/02/15 06:11:29;;;;;;;107.88;59.83;;;;;;;;;;4907670;29;20032;-96
2023/02/15 06:13:55;;;;;;;94.57;53.53;;;;;;;;;;4924566;29;20360;-93
2023/02/15 06:16:21;;;;;;;95.72;54.60;;;;;;;;;;4936415;29;20435;-93
2023/02/15 06:18:47;;;;;;;109.75;59.78;;;;;;;;;;4942032;29;20036;-95
2023/02/15 06:21:13;;;;;;;121.80;64.53;;;;;;;;;;4938545;29;20098;-95
2023/02/15 06:23:40;;;;;;;102.68;56.00;;;;;;;;;;4942409;29;20063;-96
2023/02/15 06:26:06;;;;;;;99.68;52.42;;;;;;;;;;4923837;29;20031;-96
2023/02/15 06:28:32;;;;;;;106.28;56.95;;;;;;;;;;4929824;29;20110;-96
2023/02/15 06:30:58;;;;;;;102.47;57.53;;;;;;;;;;4925440;29;20031;-95
2023/02/15 06:33:24;;;;;;;111.15;59.38;;;;;;;;;;4925094;29;20030;-96
2023/02/15 06:35:50;;;;;;;114.20;61.67;;;;;;;;;;4909450;29;20036;-95
2023/02/15 06:38:17;;;;;;;119.32;64.57;;;;;;;;;;4942951;29;20040;-94
2023/02/15 06:40:43;;;;;;;112.80;60.25;;;;;;;;;;4907639;29;20064;-95
2023/02/15 06:43:09;;;;;;;105.70;54.85;;;;;;;;;;4930811;29;20415;-95
2023/02/15 06:45:35;;;;;;;110.10;53.28;;;;;;;;;;4927650;29;20393;-93
2023/02/15 06:48:01;;;;;;;120.88;56.40;;;;;;;;;;4927617;29;20043;-92
2023/02/15 06:50:27;;;;;;;139.43;64.03;;;;;;;;;;4925220;29;20075;-92
2023/02/15 06:52:57;;;;;;;157.85;66.90;;;;;;;;;;4933037;29;20408;-93
2023/02/15 06:58:26;;;;;;;168.57;74.60;;;;;;;;;;4922986;29;20437;-93
2023/02/15 07:00:53;;;;;;;129.88;62.80;;;;;;;;;;4932031;29;20060;-93
2023/02/15 07:03:19;;;;;;;130.23;66.03;;;;;;;;;;4925594;29;20027;-93
2023/02/15 07:05:45;;;;;;;113.18;60.17;;;;;;;;;;4941934;29;20028;-95
2023/02/15 07:08:11;;;;;;;164.20;101.10;;;;;;;;;;4933179;29;20035;-95
2023/02/15 07:13:42;;;;;;;122.65;75.15;;;;;;;;;;4935411;29;20438;-92
2023/02/15 07:16:08;;;;;;;103.47;59.35;;;;;;;;;;4923435;29;20032;-92
2023/02/15 07:18:35;;;;;;;107.72;59.75;;;;;;;;;;4914535;29;20020;-94
2023/02/15 07:21:01;;;;;;;103.43;59.88;;;;;;;;;;4924648;29;20047;-95
2023/02/15 07:23:27;;;;;;;113.93;64.03;;;;;;;;;;4941762;29;20043;-93
2023/02/15 07:26:07;;;;;;;113.03;62.00;;;;;;;;;;4926675;29;20087;-95
2023/02/15 07:28:34;;;;;;;115.45;60.63;;;;;;;;;;4929285;29;20019;-93
2023/02/15 07:31:04;;;;;;;123.75;63.20;;;;;;;;;;4925304;29;20024;-92
2023/02/15 07:33:34;;;;;;;104.50;54.70;;;;;;;;;;4923562;29;20076;-93
2023/02/15 07:36:01;;;;;;;96.82;53.65;;;;;;;;;;4922628;29;20055;-92
2023/02/15 07:38:30;;;;;;;107.07;55.60;;;;;;;;;;4922987;29;20047;-92
2023/02/15 07:40:59;;;;;;;174.20;79.07;;;;;;;;;;4923393;29;20035;-93
2023/02/15 07:43:26;;;;;;;163.30;73.15;;;;;;;;;;4926189;29;20427;-93
2023/02/15 07:45:52;;;;;;;127.25;61.17;;;;;;;;;;4906137;29;20411;-93
2023/02/15 07:48:18;;;;;;;116.63;57.63;;;;;;;;;;4926346;29;20026;-93
2023/02/15 07:50:44;;;;;;;99.25;49.70;;;;;;;;;;4924677;29;20071;-91
2023/02/15 07:53:10;;;;;;;84.07;47.58;;;;;;;;;;4924837;29;20034;-92
2023/02/15 07:55:55;;;;;;;91.60;50.67;;;;;;;;;;4924584;29;20028;-92
2023/02/15 07:58:21;;;;;;;79.63;43.90;;;;;;;;;;4937404;29;20060;-93
2023/02/15 08:01:07;;;;;;;74.30;43.50;;;;;;;;;;4933322;29;20036;-92
2023/02/15 08:03:33;;;;;;;67.10;40.03;;;;;;;;;;4931183;29;20031;-94
2023/02/15 08:05:59;;;;;;;71.55;43.08;;;;;;;;;;4922336;29;20028;-94
2023/02/15 08:08:31;;;;;;;79.22;46.47;;;;;;;;;;4925528;29;20438;-93
2023/02/15 08:11:36;;;;;;;79.45;46.00;;;;;;;;;;4920159;29;20115;-96
2023/02/15 08:14:13;;;;;;;70.43;42.72;;;;;;;;;;5185758;23;20063;-96
2023/02/15 08:16:42;;;;;;;78.85;43.08;;;;;;;;;;4938928;29;20411;-94
2023/02/15 08:19:10;;;;;;;77.45;46.65;;;;;;;;;;4924455;29;20039;-93
2023/02/15 08:21:38;;;;;;;88.25;50.83;;;;;;;;;;4940513;29;20039;-94
2023/02/15 08:27:26;;;;;;;76.60;45.13;;;;;;;;;;4938417;29;20035;-95
2023/02/15 08:29:53;;;;;;;79.00;45.28;;;;;;;;;;4905767;29;20396;-95
2023/02/15 08:32:20;;;;;;;85.80;49.75;;;;;;;;;;4906881;29;20072;-96
2023/02/15 08:34:48;;;;;;;76.90;45.38;;;;;;;;;;4909509;29;20028;-96
2023/02/15 08:37:18;;;;;;;83.20;47.08;;;;;;;;;;4924825;29;20032;-95
2023/02/15 08:45:51;;;;;;;74.82;43.75;;;;;;;;;;4902809;29;20051;-96
2023/02/15 08:48:17;;;;;;;78.60;43.63;;;;;;;;;;4902906;29;20051;-95
2023/02/15 08:50:44;;;;;;;75.43;44.13;;;;;;;;;;4914604;29;20016;-95
2023/02/15 08:53:10;;;;;;;73.80;41.95;;;;;;;;;;4921610;29;20024;-95
2023/02/15 08:55:55;;;;;;;;;;;;;;;;;;;;;
2023/02/15 08:58:21;;;;;;;92.35;49.08;;;;;;;;;;4917459;29;20040;-93
2023/02/15 09:20:41;;;;;;;;;;;;;;;;;;834134;23;20328;-93
2023/02/15 09:23:11;;;;;;;63.78;36.88;;;;;;;;;;4923045;29;19923;-94
2023/02/15 09:25:37;;;;;;;65.88;40.28;;;;;;;;;;4891049;29;20483;-96
2023/02/15 09:28:04;;;;;;;66.47;37.97;;;;;;;;;;4908748;29;20431;-96
2023/02/15 09:30:30;;;;;;;64.70;36.90;;;;;;;;;;4908651;29;20080;-93
2023/02/15 09:32:56;;;;;;;59.88;34.85;;;;;;;;;;4908018;29;20029;-93
2023/02/15 09:35:22;;;;;;;66.93;38.55;;;;;;;;;;4891733;29;20441;-94
2023/02/15 09:37:48;;;;;;;62.47;37.08;;;;;;;;;;4891912;29;20032;-95
2023/02/15 09:43:50;;;;;;;61.65;36.45;;;;;;;;;;4906150;29;20035;-94
2023/02/15 09:46:46;;;;;;;58.20;34.92;;;;;;;;;;4891827;29;20136;-95
2023/02/15 09:49:21;;;;;;;62.65;35.70;;;;;;;;;;4850943;29;20130;-94
2023/02/15 09:51:58;;;;;;;56.63;35.17;;;;;;;;;;4833876;29;20067;-94
2023/02/15 10:01:21;;;;;;;64.60;36.95;;;;;;;;;;4852780;29;20029;-94
2023/02/15 10:04:07;;;;;;;78.43;44.10;;;;;;;;;;4851178;29;20447;-92
2023/02/15 10:06:41;;;;;;;68.22;38.72;;;;;;;;;;4778313;30;20308;-94
2023/02/15 10:09:22;;;;;;;69.28;38.92;;;;;;;;;;4778288;30;20042;-96
2023/02/15 10:12:04;;;;;;;60.78;35.72;;;;;;;;;;4777911;30;20036;-93
2023/02/15 10:14:56;;;;;;;61.80;37.67;;;;;;;;;;4778289;30;20044;-94
2023/02/15 10:17:25;;;;;;;;;;;;;;;;;;4760151;30;20115;-93
2023/02/15 10:20:11;;;;;;;63.45;36.35;;;;;;;;;;4773776;30;19910;-93
2023/02/15 10:22:41;;;;;;;57.65;35.50;;;;;;;;;;4778021;30;20393;-92
2023/02/15 10:25:13;;;;;;;61.13;36.25;;;;;;;;;;4795206;29;20045;-91
2023/02/15 10:27:47;;;;;;;60.00;35.00;;;;;;;;;;4832109;29;20034;-94
2023/02/15 10:30:18;;;;;;;49.28;31.15;;;;;;;;;;4831589;29;20029;-92
2023/02/15 10:32:53;;;;;;;55.10;34.30;;;;;;;;;;4847327;29;20087;-94
2023/02/15 10:35:34;;;;;;;49.88;32.45;;;;;;;;;;4831978;29;20300;-95
2023/02/15 10:38:01;;;;;;;50.17;31.95;;;;;;;;;;4839513;29;20156;-90
2023/02/15 10:43:59;;;;;;;46.55;31.13;;;;;;;;;;4862299;29;20327;-89
2023/02/15 10:46:48;;;;;;;50.97;32.05;;;;;;;;;;4893568;29;20041;-96
2023/02/15 10:49:23;;;;;;;48.67;30.20;;;;;;;;;;4892719;29;20101;-85
2023/02/15 10:51:50;;;;;;;52.90;32.67;;;;;;;;;;4898840;29;20040;-86
2023/02/15 10:54:19;;;;;;;47.55;31.33;;;;;;;;;;4887903;29;20024;-85
2023/02/15 10:59:48;;;;;;;46.22;30.02;;;;;;;;;;4904866;29;20076;-87
2023/02/15 11:02:21;;;;;;;51.85;32.05;;;;;;;;;;4904006;29;20032;-85
2023/02/15 11:05:03;;;;;;;51.00;31.38;;;;;;;;;;4904262;29;20036;-85
2023/02/15 11:07:39;;;;;;;49.50;30.38;;;;;;;;;;4869259;29;20041;-85
2023/02/15 11:13:14;;;;;;;55.53;32.85;;;;;;;;;;4898029;29;20047;-86
2023/02/15 11:15:40;;;;;;;;;;;;;;;;;;4904281;29;20052;-85
2023/02/15 11:18:10;;;;;;;44.35;29.02;;;;;;;;;;4887197;29;19994;-85
2023/02/15 11:20:39;;;;;;;50.17;31.95;;;;;;;;;;4903434;29;20039;-85
2023/02/15 11:23:15;;;;;;;49.22;31.27;;;;;;;;;;4903533;29;20055;-85
2023/02/15 11:28:51;;;;;;;44.17;29.00;;;;;;;;;;4903774;29;20052;-85
2023/02/15 11:31:19;;;;;;;45.67;30.38;;;;;;;;;;4903958;29;20024;-85
2023/02/15 11:33:51;;;;;;;43.65;29.23;;;;;;;;;;4900316;29;20029;-83
2023/02/15 11:36:23;;;;;;;45.67;29.92;;;;;;;;;;4903489;29;20037;-85
2023/02/15 11:38:52;;;;;;;46.20;29.73;;;;;;;;;;4903467;29;20040;-85
2023/02/15 11:41:24;;;;;;;44.38;29.27;;;;;;;;;;4903801;29;20040;-86
2023/02/15 11:44:05;;;;;;;46.43;30.60;;;;;;;;;;4886813;29;20025;-85
2023/02/15 11:46:31;;;;;;;48.85;31.15;;;;;;;;;;4903109;29;20040;-85
2023/02/15 11:48:58;;;;;;;46.53;29.58;;;;;;;;;;4902186;29;20039;-84
2023/02/15 11:51:25;;;;;;;50.63;31.73;;;;;;;;;;4903124;29;20039;-83
2023/02/15 11:53:52;;;;;;;47.88;30.20;;;;;;;;;;4903163;29;20028;-85
2023/02/15 11:56:20;;;;;;;44.13;29.38;;;;;;;;;;4886033;29;20104;-85
2023/02/15 11:58:49;;;;;;;40.13;28.25;;;;;;;;;;4900472;29;20040;-85
2023/02/15 12:01:24;;;;;;;48.55;30.90;;;;;;;;;;4883789;29;20040;-85
2023/02/15 12:03:52;;;;;;;46.30;29.95;;;;;;;;;;4868005;29;20076;-82
2023/02/15 12:06:21;;;;;;;49.72;30.95;;;;;;;;;;4887571;29;20025;-84
2023/02/15 12:08:49;;;;;;;42.00;28.58;;;;;;;;;;4886573;29;20088;-84
2023/02/15 12:11:17;;;;;;;47.97;30.20;;;;;;;;;;4886467;29;20025;-84
2023/02/15 12:13:59;;;;;;;46.30;30.33;;;;;;;;;;4902985;29;20040;-83
2023/02/15 12:16:27;;;;;;;51.05;31.48;;;;;;;;;;4902897;29;20028;-84
2023/02/15 12:18:54;;;;;;;42.13;29.33;;;;;;;;;;4902715;29;20032;-86
2023/02/15 12:21:28;;;;;;;45.50;31.00;;;;;;;;;;4901624;29;20127;-84
2023/02/15 12:24:13;;;;;;;47.28;29.90;;;;;;;;;;4903445;29;20029;-95
2023/02/15 12:26:44;;;;;;;47.60;30.13;;;;;;;;;;4886508;29;20129;-95
2023/02/15 12:29:16;;;;;;;42.72;28.50;;;;;;;;;;4886469;29;20025;-96
2023/02/15 12:31:50;;;;;;;41.58;27.50;;;;;;;;;;4886851;29;20124;-96
2023/02/15 12:34:35;;;;;;;;;;;;;;;;;;;;;
2023/02/15 12:37:15;;;;;;;39.95;26.73;;;;;;;;;;4822239;29;20051;-96
2023/02/15 12:39:58;;;;;;;41.00;26.75;;;;;;;;;;4872257;29;20023;-96
2023/02/15 12:45:32;;;;;;;46.97;29.27;;;;;;;;;;4902768;29;20044;-95
2023/02/15 12:48:16;;;;;;;43.28;28.50;;;;;;;;;;4886355;29;20028;-96
2023/02/15 12:50:43;;;;;;;41.83;27.50;;;;;;;;;;4885923;29;20063;-95
2023/02/15 12:53:28;;;;;;;44.08;28.38;;;;;;;;;;4902512;29;20115;-96
2023/02/15 12:55:54;;;;;;;37.50;25.92;;;;;;;;;;4885744;29;20116;-96
2023/02/15 12:58:25;;;;;;;43.30;28.00;;;;;;;;;;4902866;29;20028;-94
2023/02/15 13:01:15;;;;;;;43.25;29.02;;;;;;;;;;4886206;29;20088;-96
2023/02/15 13:03:50;;;;;;;43.83;28.55;;;;;;;;;;4885686;29;20415;-96
2023/02/15 13:06:18;;;;;;;44.10;27.00;;;;;;;;;;4886379;29;20033;-94
2023/02/15 13:08:51;;;;;;;42.33;27.25;;;;;;;;;;4902292;29;20029;-95
2023/02/15 13:15:23;;;;;;;41.50;26.27;;;;;;;;;;4884576;29;20044;-95
2023/02/15 13:17:49;;;;;;;38.60;26.10;;;;;;;;;;4883751;29;20033;-94
2023/02/15 13:20:23;;;;;;;43.47;27.23;;;;;;;;;;4867239;29;20026;-95
2023/02/15 13:22:51;;;;;;;42.70;28.98;;;;;;;;;;4900716;29;20049;-95
2023/02/15 13:25:41;;;;;;;;;;;;;;;;;;;;;
2023/02/15 13:31:29;;;;;;;40.15;26.63;;;;;;;;;;5093405;23;20122;-95
2023/02/15 13:33:59;;;;;;;40.65;26.65;;;;;;;;;;4940717;29;20414;-95
2023/02/15 13:36:28;;;;;;;37.55;25.27;;;;;;;;;;4923738;29;20055;-95
2023/02/15 13:39:11;;;;;;;46.55;27.98;;;;;;;;;;4922790;29;20032;-95
2023/02/15 13:44:54;;;;;;;42.00;28.23;;;;;;;;;;4940335;29;20046;-94
2023/02/15 13:47:20;;;;;;;43.30;26.92;;;;;;;;;;4923587;29;20036;-96
2023/02/15 13:49:49;;;;;;;41.22;26.60;;;;;;;;;;4923356;29;20036;-96
2023/02/15 13:52:27;;;;;;;40.17;26.33;;;;;;;;;;4925512;29;20091;-93
2023/02/15 13:55:19;;;;;;;40.10;26.70;;;;;;;;;;4940217;29;20083;-85
2023/02/15 13:58:06;;;;;;;45.30;29.05;;;;;;;;;;4940065;29;20030;-87
2023/02/15 14:00:40;;;;;;;42.78;27.15;;;;;;;;;;4940025;29;20036;-86
2023/02/15 14:03:13;;;;;;;37.03;24.45;;;;;;;;;;4939910;29;20356;-87
2023/02/15 14:05:51;;;;;;;45.08;27.77;;;;;;;;;;4939974;29;20038;-87
2023/02/15 14:08:23;;;;;;;56.33;34.45;;;;;;;;;;4942245;29;20035;-87
2023/02/15 14:11:13;;;;;;;44.42;29.08;;;;;;;;;;4943757;29;20099;-87
2023/02/15 14:13:49;;;;;;;41.92;28.08;;;;;;;;;;4943227;29;20032;-87
2023/02/15 14:16:24;;;;;;;50.10;31.95;;;;;;;;;;4926344;29;20032;-87
2023/02/15 14:19:14;;;;;;;45.53;29.73;;;;;;;;;;4943419;29;20070;-88
2023/02/15 14:21:40;;;;;;;42.80;29.08;;;;;;;;;;4943412;29;20035;-87
2023/02/15 14:24:16;;;;;;;42.92;28.98;;;;;;;;;;4926456;29;20032;-87
2023/02/15 14:27:00;;;;;;;52.60;33.50;;;;;;;;;;4926374;29;20035;-87
2023/02/15 14:29:41;;;;;;;56.15;36.92;;;;;;;;;;4923891;29;20032;-87
2023/02/15 14:32:26;;;;;;;53.03;36.05;;;;;;;;;;4907412;29;20025;-87
2023/02/15 14:34:54;;;;;;;47.53;32.80;;;;;;;;;;4907471;29;20027;-84
2023/02/15 14:37:43;;;;;;;55.03;35.95;;;;;;;;;;4924198;29;20035;-91
2023/02/15 14:43:06;;;;;;;43.50;29.27;;;;;;;;;;4829169;29;20037;-87
2023/02/15 14:45:42;;;;;;;46.85;30.00;;;;;;;;;;4829142;29;20088;-87
2023/02/15 14:48:24;;;;;;;40.38;27.38;;;;;;;;;;4829028;29;20109;-88
2023/02/15 14:50:50;;;;;;;45.15;28.75;;;;;;;;;;4828982;29;20469;-88
2023/02/15 14:53:37;;;;;;;47.10;29.40;;;;;;;;;;4829124;29;20431;-89
2023/02/15 14:56:20;;;;;;;42.25;28.52;;;;;;;;;;4828933;29;20083;-87
2023/02/15 14:58:55;;;;;;;59.80;34.17;;;;;;;;;;4828921;29;20110;-90
2023/02/15 15:01:29;;;;;;;57.83;33.40;;;;;;;;;;4829085;29;20038;-89
2023/02/15 15:03:56;;;;;;;53.35;32.53;;;;;;;;;;4828978;29;20046;-89
2023/02/15 15:06:27;;;;;;;57.85;34.28;;;;;;;;;;4828724;29;20127;-89
2023/02/15 15:08:58;;;;;;;57.72;34.00;;;;;;;;;;4828948;29;20456;-89
2023/02/15 15:14:34;;;;;;;75.85;43.65;;;;;;;;;;4814638;29;20100;-89
2023/02/15 15:17:01;;;;;;;62.63;37.33;;;;;;;;;;4862283;29;20047;-89
2023/02/15 15:19:44;;;;;;;46.95;31.42;;;;;;;;;;4904116;29;20335;-87
2023/02/15 15:22:17;;;;;;;48.22;30.45;;;;;;;;;;4902785;29;20044;-87
2023/02/15 15:24:43;;;;;;;57.78;35.35;;;;;;;;;;4923258;29;20031;-88
2023/02/15 15:30:19;;;;;;;86.95;42.35;;;;;;;;;;4922771;29;20136;-88
2023/02/15 15:32:45;;;;;;;;;;;;;;;;;;4906861;29;20123;-87
2023/02/15 15:35:30;;;;;;;83.55;44.20;;;;;;;;;;4906164;29;19969;-88
2023/02/15 15:38:03;;;;;;;56.67;35.45;;;;;;;;;;4922702;29;20384;-87
2023/02/15 15:40:49;;;;;;;54.38;32.70;;;;;;;;;;4922640;29;20036;-87
2023/02/15 15:46:50;;;;;;;50.35;29.83;;;;;;;;;;4922928;29;20075;-88
2023/02/15 15:49:18;;;;;;;48.25;30.67;;;;;;;;;;4922975;29;20318;-87
2023/02/15 15:51:45;;;;;;;51.63;33.40;;;;;;;;;;4922822;29;20348;-87
2023/02/15 15:54:25;;;;;;;55.63;32.58;;;;;;;;;;4922920;29;20051;-86
2023/02/15 15:57:02;;;;;;;52.58;33.05;;;;;;;;;;4886788;29;20079;-86
2023/02/15 15:59:31;;;;;;;62.13;37.10;;;;;;;;;;4903539;29;20119;-86
2023/02/15 16:02:04;;;;;;;77.03;41.25;;;;;;;;;;4903793;29;20162;-87
2023/02/15 16:04:31;;;;;;;65.88;38.28;;;;;;;;;;4889357;29;20084;-87
2023/02/15 16:06:58;;;;;;;73.60;39.90;;;;;;;;;;4922600;29;20032;-86
2023/02/15 16:09:27;;;;;;;83.47;43.47;;;;;;;;;;4922169;29;20124;-87
2023/02/15 16:11:55;;;;;;;90.63;45.22;;;;;;;;;;4922096;29;20111;-86
2023/02/15 16:14:30;;;;;;;93.18;47.60;;;;;;;;;;4921982;29;20028;-87
2023/02/15 16:16:57;;;;;;;168.27;65.97;;;;;;;;;;4904914;29;20083;-87
2023/02/15 16:19:26;;;;;;;192.93;71.82;;;;;;;;;;4905083;29;20036;-87
2023/02/15 16:21:53;;;;;;;232.05;81.28;;;;;;;;;;4921988;29;20047;-87
2023/02/15 16:24:28;;;;;;;366.20;112.75;;;;;;;;;;4922030;29;20047;-87
2023/02/15 16:26:57;;;;;;;336.60;108.10;;;;;;;;;;4921695;29;20031;-87
2023/02/15 16:29:28;;;;;;;430.38;125.90;;;;;;;;;;4904131;29;20261;-87
2023/02/15 16:32:13;;;;;;;435.45;129.38;;;;;;;;;;4922027;29;20032;-84
2023/02/15 16:34:39;;;;;;;415.25;125.80;;;;;;;;;;4904969;29;20327;-86
2023/02/15 16:37:18;;;;;;;427.67;132.65;;;;;;;;;;4922064;29;20315;-87
2023/02/15 16:39:45;;;;;;;449.80;139.18;;;;;;;;;;4922129;29;20059;-86
2023/02/15 16:45:52;;;;;;;467.00;141.10;;;;;;;;;;4921526;29;20457;-87
2023/02/15 16:48:21;;;;;;;452.63;138.00;;;;;;;;;;4904239;29;20040;-88
2023/02/15 16:50:52;;;;;;;403.83;124.63;;;;;;;;;;4921245;29;20036;-87
2023/02/15 16:53:22;;;;;;;357.80;117.68;;;;;;;;;;4912546;29;20028;-87
2023/02/15 16:55:51;;;;;;;363.10;117.85;;;;;;;;;;4911539;29;20111;-87
2023/02/15 17:01:23;;;;;;;374.83;142.65;;;;;;;;;;4921843;29;20039;-87
2023/02/15 17:03:50;;;;;;;364.73;133.05;;;;;;;;;;4921339;29;20032;-87
2023/02/15 17:06:27;;;;;;;314.67;121.18;;;;;;;;;;4904584;29;20035;-87
2023/02/15 17:09:03;;;;;;;303.17;119.55;;;;;;;;;;4921326;29;20453;-87